createdAt,value
2022-11-05T00:00:36.991Z,7.20
2022-11-05T00:03:22.885Z,6.30
2022-11-05T00:06:11.558Z,7.45
2022-11-05T00:08:57.523Z,7.03
2022-11-05T00:11:44.011Z,6.90
2022-11-05T00:14:29.058Z,7.07
2022-11-05T00:16:55.526Z,6.97
2022-11-05T00:19:21.994Z,7.00
2022-11-05T00:22:07.135Z,6.85
2022-11-05T00:24:52.038Z,7.00
2022-11-05T00:27:18.555Z,6.53
2022-11-05T00:29:45.000Z,6.17
2022-11-05T00:32:11.462Z,6.18
2022-11-05T00:34:37.887Z,6.38
2022-11-05T00:37:04.401Z,6.13
2022-11-05T00:39:30.851Z,6.28
2022-11-05T00:42:15.796Z,6.40
2022-11-05T00:45:01.046Z,5.40
2022-11-05T00:47:46.749Z,6.55
2022-11-05T00:50:13.459Z,6.30
2022-11-05T00:52:56.209Z,6.15
2022-11-05T00:55:31.148Z,5.90
2022-11-05T00:57:57.694Z,5.55
2022-11-05T01:00:26.467Z,5.95
2022-11-05T01:02:53.534Z,5.80
2022-11-05T01:05:20.368Z,5.70
2022-11-05T01:07:47.782Z,5.83
2022-11-05T01:10:14.346Z,6.30
2022-11-05T01:12:40.835Z,6.10
2022-11-05T01:15:07.908Z,6.03
2022-11-05T01:17:34.369Z,5.80
2022-11-05T01:20:00.802Z,6.27
2022-11-05T01:22:27.351Z,6.18
2022-11-05T01:24:54.001Z,5.93
2022-11-05T01:27:20.414Z,5.93
2022-11-05T01:29:46.883Z,6.07
2022-11-05T01:32:13.806Z,5.60
2022-11-05T01:34:40.218Z,5.85
2022-11-05T01:37:06.632Z,5.80
2022-11-05T01:39:33.248Z,5.97
2022-11-05T01:42:00.973Z,6.18
2022-11-05T01:44:52.210Z,5.57
2022-11-05T01:47:34.656Z,5.95
2022-11-05T01:50:06.826Z,5.45
2022-11-05T01:52:34.958Z,5.70
2022-11-05T01:55:03.321Z,6.10
2022-11-05T01:57:31.678Z,5.67
2022-11-05T02:00:01.251Z,5.82
2022-11-05T02:02:29.086Z,5.88
2022-11-05T02:05:00.302Z,5.38
2022-11-05T02:07:28.359Z,5.47
2022-11-05T02:10:02.233Z,5.53
2022-11-05T02:12:29.633Z,5.38
2022-11-05T02:14:57.107Z,5.57
2022-11-05T02:17:33.869Z,5.80
2022-11-05T02:20:10.135Z,5.00
2022-11-05T02:22:48.679Z,5.00
2022-11-05T02:25:57.538Z,5.30
2022-11-05T02:28:46.551Z,5.10
2022-11-05T02:31:27.425Z,4.82
2022-11-05T02:34:06.010Z,5.15
2022-11-05T02:37:05.633Z,5.37
2022-11-05T02:39:46.998Z,5.60
2022-11-05T02:42:34.988Z,5.55
2022-11-05T02:45:32.352Z,5.35
2022-11-05T02:48:12.999Z,5.65
2022-11-05T02:51:03.411Z,5.83
2022-11-05T02:53:41.750Z,5.63
2022-11-05T02:56:16.701Z,6.07
2022-11-05T02:58:43.233Z,5.90
2022-11-05T03:01:12.480Z,5.85
2022-11-05T03:03:48.438Z,6.67
2022-11-05T03:06:33.608Z,6.28
2022-11-05T03:09:33.260Z,6.22
2022-11-05T03:12:23.752Z,6.20
2022-11-05T03:15:05.663Z,6.25
2022-11-05T03:17:37.811Z,7.10
2022-11-05T03:20:19.253Z,6.43
2022-11-05T03:23:02.819Z,6.03
2022-11-05T03:25:32.247Z,6.10
2022-11-05T03:28:05.353Z,6.38
2022-11-05T03:30:33.717Z,5.87
2022-11-05T03:33:05.636Z,5.55
2022-11-05T03:35:37.288Z,5.78
2022-11-05T03:38:13.363Z,6.40
2022-11-05T03:40:42.454Z,6.25
2022-11-05T03:43:09.818Z,5.90
2022-11-05T03:45:50.471Z,6.65
2022-11-05T03:48:19.238Z,6.20
2022-11-05T03:50:57.850Z,6.28
2022-11-05T03:53:30.590Z,6.22
2022-11-05T03:56:06.869Z,6.50
2022-11-05T03:58:35.180Z,5.90
2022-11-05T04:01:03.449Z,6.03
2022-11-05T04:03:36.170Z,5.97
2022-11-05T04:06:23.308Z,6.53
2022-11-05T04:09:08.144Z,6.07
2022-11-05T04:11:53.312Z,6.30
2022-11-05T04:14:19.882Z,6.25
2022-11-05T04:17:05.079Z,6.40
2022-11-05T04:19:50.920Z,6.32
2022-11-05T04:22:35.914Z,6.43
2022-11-05T04:25:02.421Z,6.65
2022-11-05T04:27:28.886Z,7.30
2022-11-05T04:30:13.940Z,6.90
2022-11-05T04:32:40.454Z,6.50
2022-11-05T04:35:06.966Z,6.77
2022-11-05T04:37:33.539Z,6.40
2022-11-05T04:40:00.037Z,5.93
2022-11-05T04:42:27.905Z,6.80
2022-11-05T04:44:54.357Z,6.13
2022-11-05T04:47:20.843Z,6.60
2022-11-05T04:49:47.325Z,6.25
2022-11-05T04:52:13.814Z,5.97
2022-11-05T04:54:40.273Z,6.30
2022-11-05T04:57:06.676Z,6.53
2022-11-05T04:59:33.146Z,6.77
2022-11-05T05:02:00.186Z,6.32
2022-11-05T05:04:26.878Z,6.72
2022-11-05T05:06:53.600Z,6.30
2022-11-05T05:09:20.108Z,6.60
2022-11-05T05:11:46.584Z,6.27
2022-11-05T05:14:13.012Z,6.70
2022-11-05T05:16:39.495Z,6.30
2022-11-05T05:19:06.143Z,6.30
2022-11-05T05:21:38.618Z,6.40
2022-11-05T05:24:18.492Z,5.90
2022-11-05T05:26:47.350Z,5.97
2022-11-05T05:29:14.320Z,6.22
2022-11-05T05:31:41.669Z,5.45
2022-11-05T05:34:11.028Z,5.40
2022-11-05T05:36:37.615Z,5.77
2022-11-05T05:39:08.649Z,6.05
2022-11-05T05:41:35.116Z,5.13
2022-11-05T05:44:01.591Z,5.32
2022-11-05T05:46:28.018Z,5.13
2022-11-05T05:48:54.481Z,6.13
2022-11-05T05:51:20.962Z,6.40
2022-11-05T05:53:47.416Z,5.80
2022-11-05T05:56:19.217Z,5.55
2022-11-05T05:58:46.218Z,5.95
2022-11-05T06:01:18.864Z,6.00
2022-11-05T06:03:47.356Z,6.15
2022-11-05T06:06:19.579Z,6.10
2022-11-05T06:08:46.771Z,5.30
2022-11-05T06:11:13.680Z,5.65
2022-11-05T06:13:40.178Z,5.57
2022-11-05T06:16:08.568Z,5.50
2022-11-05T06:18:35.762Z,5.70
2022-11-05T06:21:07.467Z,4.97
2022-11-05T06:23:35.446Z,5.53
2022-11-05T06:26:03.862Z,5.80
2022-11-05T06:28:30.745Z,5.68
2022-11-05T06:30:57.693Z,5.80
2022-11-05T06:33:24.514Z,5.93
2022-11-05T06:35:51.269Z,6.00
2022-11-05T06:38:17.906Z,5.63
2022-11-05T06:40:44.425Z,5.53
2022-11-05T06:43:11.381Z,6.13
2022-11-05T06:45:38.048Z,5.47
2022-11-05T06:48:04.833Z,5.65
2022-11-05T06:50:31.323Z,5.33
2022-11-05T06:53:03.654Z,5.35
2022-11-05T06:55:31.608Z,5.95
2022-11-05T06:57:58.157Z,5.93
2022-11-05T07:00:25.137Z,5.57
2022-11-05T07:02:51.547Z,5.23
2022-11-05T07:05:18.515Z,5.85
2022-11-05T07:07:45.891Z,5.80
2022-11-05T07:10:15.260Z,5.30
2022-11-05T07:12:42.964Z,5.38
2022-11-05T07:15:11.451Z,5.10
2022-11-05T07:17:39.197Z,5.70
2022-11-05T07:20:07.422Z,5.32
2022-11-05T07:22:35.398Z,5.43
2022-11-05T07:25:02.166Z,5.57
2022-11-05T07:27:28.871Z,5.93
2022-11-05T07:29:55.304Z,6.15
2022-11-05T07:32:21.723Z,6.93
2022-11-05T07:34:48.267Z,6.88
2022-11-05T07:37:16.608Z,6.63
2022-11-05T07:39:43.201Z,6.47
2022-11-05T07:42:13.636Z,6.13
2022-11-05T07:44:40.195Z,6.25
2022-11-05T07:47:06.639Z,6.13
2022-11-05T07:49:33.134Z,6.82
2022-11-05T07:51:59.663Z,6.50
2022-11-05T07:54:26.745Z,7.00
2022-11-05T07:56:53.221Z,7.38
2022-11-05T07:59:19.801Z,6.57
2022-11-05T08:01:46.559Z,6.10
2022-11-05T08:04:13.796Z,6.27
2022-11-05T08:06:40.678Z,6.05
2022-11-05T08:09:07.194Z,6.78
2022-11-05T08:11:35.130Z,6.47
2022-11-05T08:14:01.570Z,6.18
2022-11-05T08:16:28.100Z,5.90
2022-11-05T08:18:54.662Z,5.85
2022-11-05T08:21:21.324Z,5.80
2022-11-05T08:23:47.879Z,5.15
2022-11-05T08:26:14.430Z,5.60
2022-11-05T08:28:41.459Z,5.43
2022-11-05T08:31:07.889Z,5.45
2022-11-05T08:33:34.849Z,5.13
2022-11-05T08:36:04.439Z,4.20
2022-11-05T08:38:31.004Z,4.05
2022-11-05T08:40:58.262Z,5.10
2022-11-05T08:43:25.198Z,4.70
2022-11-05T08:45:51.884Z,5.05
2022-11-05T08:48:19.366Z,5.18
2022-11-05T08:50:48.357Z,5.20
2022-11-05T08:53:15.505Z,5.00
2022-11-05T08:55:43.827Z,4.80
2022-11-05T08:58:12.561Z,4.50
2022-11-05T09:00:39.821Z,4.30
2022-11-05T09:03:09.078Z,4.10
2022-11-05T09:05:39.010Z,3.80
2022-11-05T09:08:06.945Z,3.78
2022-11-05T09:10:33.575Z,4.00
2022-11-05T09:13:00.103Z,4.10
2022-11-05T09:15:27.697Z,3.40
2022-11-05T09:17:55.054Z,2.90
2022-11-05T09:20:22.069Z,2.78
2022-11-05T09:22:48.982Z,2.78
2022-11-05T09:25:15.913Z,2.65
2022-11-05T09:27:42.697Z,3.03
2022-11-05T09:30:10.499Z,2.30
2022-11-05T09:32:36.954Z,2.45
2022-11-05T09:35:04.065Z,2.33
2022-11-05T09:37:30.598Z,2.53
2022-11-05T09:39:57.545Z,2.42
2022-11-05T09:42:29.317Z,2.60
2022-11-05T09:45:05.238Z,3.10
2022-11-05T09:47:40.729Z,2.42
2022-11-05T09:50:13.769Z,2.30
2022-11-05T09:52:41.730Z,2.60
2022-11-05T09:55:19.932Z,2.13
2022-11-05T09:57:54.527Z,2.13
2022-11-05T10:00:21.141Z,2.22
2022-11-05T10:02:55.649Z,2.10
2022-11-05T10:05:24.803Z,2.30
2022-11-05T10:07:55.491Z,1.93
2022-11-05T10:10:40.927Z,2.20
2022-11-05T10:13:34.440Z,1.60
2022-11-05T10:16:07.343Z,1.92
2022-11-05T10:18:39.426Z,2.00
2022-11-05T10:21:07.162Z,1.73
2022-11-05T10:23:34.317Z,2.00
2022-11-05T10:26:05.626Z,1.80
2022-11-05T10:28:34.380Z,2.03
2022-11-05T10:31:08.101Z,1.90
2022-11-05T10:33:48.488Z,2.37
2022-11-05T10:36:24.123Z,1.83
2022-11-05T10:38:51.318Z,1.15
2022-11-05T10:41:24.368Z,1.65
2022-11-05T10:43:54.293Z,1.00
2022-11-05T10:46:38.110Z,1.37
2022-11-05T10:49:30.318Z,1.23
2022-11-05T10:51:59.769Z,1.20
2022-11-05T10:54:33.516Z,1.05
2022-11-05T10:57:00.012Z,1.05
2022-11-05T10:59:29.354Z,1.10
2022-11-05T11:02:03.232Z,0.95
2022-11-05T11:04:36.508Z,0.80
2022-11-05T11:07:04.748Z,1.00
2022-11-05T11:09:35.664Z,1.00
2022-11-05T11:12:16.920Z,0.80
2022-11-05T11:14:59.972Z,0.70
2022-11-05T11:17:32.361Z,0.90
2022-11-05T11:20:30.745Z,1.00
2022-11-05T11:23:04.517Z,0.90
2022-11-05T11:25:41.872Z,1.27
2022-11-05T11:28:19.178Z,1.00
2022-11-05T11:30:52.025Z,0.93
2022-11-05T11:33:23.988Z,0.75
2022-11-05T11:35:50.583Z,0.70
2022-11-05T11:38:17.442Z,0.70
2022-11-05T11:40:45.028Z,0.90
2022-11-05T11:43:25.546Z,0.75
2022-11-05T11:45:54.158Z,0.70
2022-11-05T11:48:30.838Z,0.80
2022-11-05T11:50:58.774Z,0.87
2022-11-05T11:53:35.835Z,1.10
2022-11-05T11:56:12.357Z,0.88
2022-11-05T11:58:40.556Z,0.80
2022-11-05T12:01:19.370Z,0.70
2022-11-05T12:04:33.968Z,1.30
2022-11-05T12:07:28.360Z,0.70
2022-11-05T12:10:11.108Z,0.60
2022-11-05T12:13:01.740Z,0.60
2022-11-05T12:15:37.232Z,0.68
2022-11-05T12:18:06.142Z,0.80
2022-11-05T12:21:06.370Z,0.88
2022-11-05T12:23:48.006Z,0.75
2022-11-05T12:26:32.354Z,0.60
2022-11-05T12:29:19.154Z,0.70
2022-11-05T12:32:13.708Z,0.70
2022-11-05T12:35:11.737Z,0.80
2022-11-05T12:37:54.645Z,1.05
2022-11-05T12:40:36.511Z,0.70
2022-11-05T12:43:19.551Z,0.80
2022-11-05T12:46:13.327Z,0.80
2022-11-05T12:49:05.520Z,0.73
2022-11-05T12:51:41.121Z,1.33
2022-11-05T12:54:37.118Z,0.80
2022-11-05T12:57:05.376Z,0.85
2022-11-05T12:59:37.312Z,0.80
2022-11-05T13:02:25.013Z,0.98
2022-11-05T13:05:00.987Z,0.70
2022-11-05T13:07:35.713Z,0.65
2022-11-05T13:10:10.333Z,0.60
2022-11-05T13:12:39.485Z,1.13
2022-11-05T13:15:26.616Z,0.70
2022-11-05T13:18:04.369Z,0.90
2022-11-05T13:20:38.365Z,0.90
2022-11-05T13:23:16.404Z,0.95
2022-11-05T13:25:50.518Z,0.80
2022-11-05T13:28:24.752Z,0.90
2022-11-05T13:30:54.867Z,0.88
2022-11-05T13:33:25.915Z,0.80
2022-11-05T13:36:23.451Z,1.05
2022-11-05T13:38:59.133Z,0.80
2022-11-05T13:41:38.297Z,0.80
2022-11-05T13:44:29.357Z,1.00
2022-11-05T13:47:11.782Z,1.27
2022-11-05T13:49:51.686Z,0.70
2022-11-05T13:52:41.171Z,0.80
2022-11-05T13:55:36.523Z,0.85
2022-11-05T13:58:30.890Z,1.20
2022-11-05T14:01:31.409Z,0.90
2022-11-05T14:03:58.270Z,0.95
2022-11-05T14:06:30.833Z,1.63
2022-11-05T14:09:01.873Z,0.85
2022-11-05T14:11:32.918Z,0.47
2022-11-05T14:14:06.886Z,0.70
2022-11-05T14:16:53.444Z,1.05
2022-11-05T14:19:19.844Z,1.43
2022-11-05T14:21:52.366Z,1.60
2022-11-05T14:24:21.670Z,1.40
2022-11-05T14:27:00.484Z,1.13
2022-11-05T14:29:41.694Z,1.40
2022-11-05T14:32:17.066Z,1.50
2022-11-05T14:35:21.250Z,1.20
2022-11-05T14:37:55.579Z,0.82
2022-11-05T14:40:21.986Z,0.85
2022-11-05T14:42:54.556Z,1.60
2022-11-05T14:45:30.039Z,1.10
2022-11-05T14:48:05.071Z,1.00
2022-11-05T14:50:42.499Z,1.08
2022-11-05T14:53:33.595Z,1.67
2022-11-05T14:56:04.362Z,1.50
2022-11-05T14:58:42.422Z,1.40
2022-11-05T15:01:15.630Z,1.73
2022-11-05T15:03:46.377Z,1.20
2022-11-05T15:06:31.450Z,1.55
2022-11-05T15:09:00.869Z,1.30
2022-11-05T15:11:27.316Z,1.23
2022-11-05T15:13:53.730Z,1.50
2022-11-05T15:16:30.602Z,1.48
2022-11-05T15:18:58.061Z,1.50
2022-11-05T15:21:25.456Z,1.55
2022-11-05T15:23:56.644Z,1.70
2022-11-05T15:26:39.145Z,5.05
2022-11-05T15:29:16.937Z,8.65
2022-11-05T15:31:45.298Z,4.70
2022-11-05T15:34:20.544Z,3.00
2022-11-05T15:36:53.802Z,3.03
2022-11-05T15:39:48.200Z,5.70
2022-11-05T15:42:17.676Z,12.23
2022-11-05T15:44:49.524Z,22.10
2022-11-05T15:47:24.559Z,25.55
2022-11-05T15:50:03.023Z,19.77
2022-11-05T15:52:36.345Z,10.73
2022-11-05T15:55:07.718Z,10.23
2022-11-05T15:57:39.292Z,9.70
2022-11-05T16:00:16.819Z,12.15
2022-11-05T16:02:49.363Z,14.83
2022-11-05T16:05:15.994Z,10.13
2022-11-05T16:07:47.193Z,7.75
2022-11-05T16:10:24.100Z,9.75
2022-11-05T16:12:50.699Z,11.73
2022-11-05T16:15:23.638Z,13.60
2022-11-05T16:17:53.997Z,11.68
2022-11-05T16:20:29.602Z,9.30
2022-11-05T16:23:03.689Z,7.75
2022-11-05T16:25:41.882Z,6.80
2022-11-05T16:28:28.920Z,5.07
2022-11-05T16:31:02.455Z,4.45
2022-11-05T16:33:39.234Z,4.50
2022-11-05T16:36:07.895Z,4.28
2022-11-05T16:38:34.618Z,4.97
2022-11-05T16:41:01.109Z,4.87
2022-11-05T16:43:27.706Z,4.80
2022-11-05T16:45:57.054Z,5.10
2022-11-05T16:48:24.249Z,5.15
2022-11-05T16:50:51.083Z,5.60
2022-11-05T16:53:17.812Z,7.07
2022-11-05T16:55:45.331Z,8.73
2022-11-05T16:58:23.396Z,9.80
2022-11-05T17:00:52.020Z,8.23
2022-11-05T17:03:18.586Z,5.05
2022-11-05T17:05:45.067Z,7.80
2022-11-05T17:08:11.942Z,7.97
2022-11-05T17:10:38.976Z,9.50
2022-11-05T17:13:05.570Z,10.20
2022-11-05T17:15:35.403Z,10.45
2022-11-05T17:18:03.811Z,6.10
2022-11-05T17:20:41.084Z,7.38
2022-11-05T17:23:10.390Z,7.03
2022-11-05T17:25:37.968Z,7.45
2022-11-05T17:28:05.109Z,7.85
2022-11-05T17:30:31.907Z,7.97
2022-11-05T17:32:58.685Z,8.18
2022-11-05T17:35:25.454Z,8.35
2022-11-05T17:37:52.019Z,7.45
2022-11-05T17:40:21.406Z,7.30
2022-11-05T17:42:48.422Z,6.63
2022-11-05T17:45:15.444Z,6.93
2022-11-05T17:47:42.292Z,7.05
2022-11-05T17:50:11.256Z,6.13
2022-11-05T17:52:38.021Z,6.05
2022-11-05T17:55:08.509Z,5.60
2022-11-05T17:57:34.915Z,6.20
2022-11-05T18:00:01.609Z,6.10
2022-11-05T18:02:29.455Z,5.70
2022-11-05T18:04:56.081Z,5.85
2022-11-05T18:07:22.604Z,5.70
2022-11-05T18:09:49.007Z,5.72
2022-11-05T18:12:15.486Z,5.78
2022-11-05T18:14:41.935Z,5.38
2022-11-05T18:17:08.569Z,6.05
2022-11-05T18:19:38.169Z,6.13
2022-11-05T18:22:04.623Z,6.30
2022-11-05T18:24:32.135Z,6.55
2022-11-05T18:26:58.953Z,6.93
2022-11-05T18:29:25.719Z,6.85
2022-11-05T18:31:52.249Z,8.07
2022-11-05T18:34:18.700Z,7.80
2022-11-05T18:36:45.845Z,8.02
2022-11-05T18:39:12.491Z,8.30
2022-11-05T18:41:39.465Z,8.55
2022-11-05T18:44:06.305Z,8.93
2022-11-05T18:46:57.259Z,9.40
2022-11-05T18:49:20.166Z,9.25
2022-11-05T18:51:46.638Z,10.48
2022-11-05T18:54:13.149Z,11.80
2022-11-05T18:56:45.135Z,12.20
2022-11-05T18:59:35.038Z,13.07
2022-11-05T19:01:59.985Z,15.10
2022-11-05T19:04:26.992Z,18.38
2022-11-05T19:06:53.585Z,20.58
2022-11-05T19:09:20.802Z,20.47
2022-11-05T19:11:47.474Z,22.30
2022-11-05T19:14:14.009Z,17.02
2022-11-05T19:16:40.498Z,17.08
2022-11-05T19:19:07.719Z,15.00
2022-11-05T19:21:34.312Z,14.10
2022-11-05T19:24:03.755Z,12.48
2022-11-05T19:26:30.708Z,11.45
2022-11-05T19:28:59.274Z,10.93
2022-11-05T19:31:26.570Z,11.45
2022-11-05T19:33:53.758Z,10.83
2022-11-05T19:36:22.227Z,10.52
2022-11-05T19:38:53.272Z,11.02
2022-11-05T19:41:21.401Z,12.68
2022-11-05T19:43:48.160Z,11.68
2022-11-05T19:46:18.538Z,12.27
2022-11-05T19:48:45.906Z,12.10
2022-11-05T19:51:21.499Z,14.35
2022-11-05T19:53:48.974Z,15.27
2022-11-05T19:56:20.893Z,15.70
2022-11-05T19:58:47.628Z,15.27
2022-11-05T20:01:15.338Z,16.20
2022-11-05T20:03:42.001Z,15.07
2022-11-05T20:06:14.221Z,16.70
2022-11-05T20:08:59.861Z,17.13
2022-11-05T20:11:29.068Z,16.40
2022-11-05T20:13:56.479Z,17.13
2022-11-05T20:16:26.223Z,16.77
2022-11-05T20:18:53.377Z,16.30
2022-11-05T20:21:20.131Z,16.17
2022-11-05T20:23:47.564Z,15.63
2022-11-05T20:26:14.893Z,14.90
2022-11-05T20:28:43.572Z,15.27
2022-11-05T20:31:15.245Z,13.95
2022-11-05T20:33:42.567Z,14.35
2022-11-05T20:36:13.004Z,13.90
2022-11-05T20:38:39.642Z,14.70
2022-11-05T20:41:09.246Z,15.18
2022-11-05T20:43:37.054Z,14.63
2022-11-05T20:46:04.220Z,15.23
2022-11-05T20:48:32.560Z,15.13
2022-11-05T20:50:59.261Z,14.63
2022-11-05T20:53:25.959Z,18.25
2022-11-05T20:55:52.389Z,27.45
2022-11-05T20:58:19.018Z,31.05
2022-11-05T21:00:54.211Z,26.13
2022-11-05T21:03:21.354Z,31.00
2022-11-05T21:05:50.163Z,29.98
2022-11-05T21:08:16.763Z,35.53
2022-11-05T21:10:50.044Z,35.33
2022-11-05T21:13:18.242Z,34.37
2022-11-05T21:15:50.211Z,34.88
2022-11-05T21:18:18.093Z,36.20
2022-11-05T21:20:46.806Z,38.40
2022-11-05T21:23:14.657Z,35.92
2022-11-05T21:25:42.715Z,35.27
2022-11-05T21:28:11.210Z,36.90
2022-11-05T21:30:41.604Z,35.28
2022-11-05T21:33:09.151Z,36.00
2022-11-05T21:35:40.939Z,35.45
2022-11-05T21:38:07.707Z,29.50
2022-11-05T21:40:34.429Z,30.52
2022-11-05T21:43:00.892Z,31.45
2022-11-05T21:45:27.714Z,28.92
2022-11-05T21:47:54.178Z,25.73
2022-11-05T21:50:40.681Z,25.07
2022-11-05T21:53:31.426Z,23.35
2022-11-05T21:56:16.800Z,19.95
2022-11-05T21:59:02.061Z,20.00
2022-11-05T22:01:29.094Z,20.17
2022-11-05T22:04:00.306Z,17.20
2022-11-05T22:06:31.589Z,16.35
2022-11-05T22:08:58.082Z,15.18
2022-11-05T22:11:24.511Z,14.40
2022-11-05T22:13:52.730Z,14.85
2022-11-05T22:16:19.179Z,13.93
2022-11-05T22:18:45.671Z,13.75
2022-11-05T22:21:17.928Z,14.55
2022-11-05T22:23:44.556Z,13.68
2022-11-05T22:26:10.984Z,13.10
2022-11-05T22:28:37.434Z,13.43
2022-11-05T22:31:03.846Z,12.70
2022-11-05T22:33:31.062Z,13.95
2022-11-05T22:35:57.687Z,13.95
2022-11-05T22:38:24.242Z,16.98
2022-11-05T22:40:50.718Z,18.13
2022-11-05T22:43:17.169Z,17.73
2022-11-05T22:45:43.761Z,16.45
2022-11-05T22:48:10.768Z,17.20
2022-11-05T22:50:38.067Z,16.98
2022-11-05T22:53:04.800Z,17.10
2022-11-05T22:55:31.343Z,16.83
2022-11-05T22:57:57.758Z,16.35
2022-11-05T23:00:35.867Z,15.27
2022-11-05T23:03:02.971Z,14.73
2022-11-05T23:05:29.947Z,13.57
2022-11-05T23:08:15.672Z,13.82
2022-11-05T23:11:00.737Z,13.98
2022-11-05T23:13:27.369Z,13.25
2022-11-05T23:16:12.467Z,13.45
2022-11-05T23:18:57.339Z,14.37
2022-11-05T23:21:44.103Z,13.25
2022-11-05T23:24:12.775Z,13.35
2022-11-05T23:26:51.923Z,13.02
2022-11-05T23:29:24.082Z,12.48
2022-11-05T23:32:09.877Z,13.87
2022-11-05T23:34:36.660Z,13.43
2022-11-05T23:37:22.334Z,14.38
2022-11-05T23:39:48.934Z,13.07
2022-11-05T23:42:34.021Z,13.15
2022-11-05T23:45:18.923Z,12.73
2022-11-05T23:48:04.394Z,11.93
2022-11-05T23:50:35.667Z,12.00
2022-11-05T23:53:06.678Z,13.57
2022-11-05T23:55:33.165Z,12.57
2022-11-05T23:57:59.585Z,11.97
